createdAt,value
2023-01-22T00:01:11.302Z,9.18
2023-01-22T00:06:15.688Z,7.95
2023-01-22T00:11:28.400Z,7.78
2023-01-22T00:16:46.347Z,8.48
2023-01-22T00:31:57.620Z,8.48
2023-01-22T00:37:02.208Z,7.93
2023-01-22T00:42:05.547Z,8.68
2023-01-22T00:52:13.289Z,8.18
2023-01-22T00:57:16.569Z,8.63
2023-01-22T01:07:23.336Z,9.13
2023-01-22T01:12:26.635Z,9.35
2023-01-22T01:22:32.766Z,11.55
2023-01-22T01:27:35.998Z,10.60
2023-01-22T01:37:50.551Z,7.45
2023-01-22T01:43:05.464Z,6.95
2023-01-22T01:48:23.774Z,6.68
2023-01-22T01:53:27.324Z,6.15
2023-01-22T01:58:34.164Z,5.35
2023-01-22T02:03:38.556Z,4.47
2023-01-22T02:08:45.663Z,4.50
2023-01-22T02:14:07.605Z,3.85
2023-01-22T02:19:32.258Z,4.20
2023-01-22T02:24:47.148Z,4.18
2023-01-22T02:29:50.571Z,3.85
2023-01-22T02:34:53.731Z,5.22
2023-01-22T02:45:00.485Z,4.22
2023-01-22T02:50:10.082Z,4.38
2023-01-22T02:55:15.093Z,4.88
2023-01-22T03:00:19.390Z,4.70
2023-01-22T03:05:23.489Z,5.03
2023-01-22T03:10:27.697Z,4.20
2023-01-22T03:15:32.395Z,4.68
2023-01-22T03:20:36.918Z,4.25
2023-01-22T03:25:40.149Z,3.67
2023-01-22T03:30:44.650Z,3.90
2023-01-22T03:35:57.049Z,4.25
2023-01-22T03:41:16.311Z,4.18
2023-01-22T03:46:21.733Z,4.57
2023-01-22T03:51:39.485Z,4.70
2023-01-22T03:56:55.540Z,5.13
2023-01-22T04:02:07.106Z,4.38
2023-01-22T04:07:28.729Z,5.03
2023-01-22T04:12:46.184Z,5.47
2023-01-22T04:17:51.721Z,4.57
2023-01-22T04:23:16.842Z,4.25
2023-01-22T04:28:22.263Z,4.88
2023-01-22T04:33:29.899Z,5.53
2023-01-22T04:38:46.382Z,5.22
2023-01-22T04:43:50.290Z,5.15
2023-01-22T04:48:55.293Z,4.82
2023-01-22T04:59:24.445Z,4.93
2023-01-22T05:04:28.109Z,5.00
2023-01-22T05:09:44.529Z,4.85
2023-01-22T05:15:04.021Z,4.53
2023-01-22T05:20:11.630Z,4.28
2023-01-22T05:25:15.220Z,4.32
2023-01-22T05:30:19.090Z,5.00
2023-01-22T05:35:36.814Z,4.50
2023-01-22T05:45:45.581Z,4.00
2023-01-22T05:51:07.202Z,4.55
2023-01-22T05:56:11.046Z,3.83
2023-01-22T06:01:16.637Z,3.67
2023-01-22T06:06:25.715Z,4.70
2023-01-22T06:11:31.635Z,4.10
2023-01-22T06:16:35.281Z,3.83
2023-01-22T06:21:38.930Z,3.47
2023-01-22T06:26:42.435Z,3.55
2023-01-22T06:32:01.542Z,4.22
2023-01-22T06:37:25.155Z,3.80
2023-01-22T06:42:29.317Z,4.60
2023-01-22T06:47:33.401Z,3.75
2023-01-22T06:52:38.724Z,3.55
2023-01-22T06:57:44.181Z,3.38
2023-01-22T07:02:48.112Z,3.10
2023-01-22T07:07:54.510Z,3.60
2023-01-22T07:12:58.064Z,4.18
2023-01-22T07:18:01.301Z,3.40
2023-01-22T07:23:04.648Z,3.35
2023-01-22T07:33:12.288Z,3.50
2023-01-22T07:38:15.592Z,3.80
2023-01-22T07:43:18.803Z,3.85
2023-01-22T07:53:25.347Z,3.72
2023-01-22T07:58:30.457Z,4.18
2023-01-22T08:03:34.179Z,4.25
2023-01-22T08:08:38.810Z,3.50
2023-01-22T08:13:42.131Z,4.75
2023-01-22T08:18:45.562Z,4.80
2023-01-22T08:23:49.387Z,5.13
2023-01-22T08:28:52.951Z,4.72
2023-01-22T08:33:59.234Z,4.43
2023-01-22T08:39:02.790Z,4.93
2023-01-22T08:44:06.723Z,4.95
2023-01-22T08:49:10.337Z,5.38
2023-01-22T08:54:15.168Z,5.30
2023-01-22T08:59:31.192Z,5.75
2023-01-22T09:04:53.390Z,5.22
2023-01-22T09:10:00.689Z,6.18
2023-01-22T09:15:05.755Z,5.97
2023-01-22T09:20:09.653Z,6.03
2023-01-22T09:25:12.873Z,5.35
2023-01-22T09:30:17.966Z,5.60
2023-01-22T09:35:21.533Z,5.70
2023-01-22T09:40:31.755Z,6.65
2023-01-22T09:45:39.273Z,7.00
2023-01-22T09:50:43.171Z,6.65
2023-01-22T09:55:50.796Z,6.03
2023-01-22T10:00:58.757Z,6.75
2023-01-22T10:06:18.272Z,5.93
2023-01-22T10:11:21.723Z,6.50
2023-01-22T10:16:26.145Z,5.38
2023-01-22T10:21:44.546Z,6.20
2023-01-22T10:27:01.130Z,6.88
2023-01-22T10:32:30.530Z,7.32
2023-01-22T10:37:45.376Z,6.32
2023-01-22T10:43:03.721Z,7.68
2023-01-22T10:48:16.776Z,6.70
2023-01-22T10:53:27.270Z,6.20
2023-01-22T10:58:46.979Z,6.00
2023-01-22T11:04:20.768Z,5.68
2023-01-22T11:09:37.555Z,8.55
2023-01-22T11:14:40.736Z,10.57
2023-01-22T11:19:55.277Z,10.15
2023-01-22T11:25:00.045Z,10.25
2023-01-22T11:30:40.965Z,10.75
2023-01-22T11:35:58.340Z,12.82
2023-01-22T11:41:22.623Z,21.88
2023-01-22T11:46:25.759Z,17.05
2023-01-22T11:52:00.293Z,17.80
2023-01-22T11:57:12.554Z,18.50
2023-01-22T12:02:50.019Z,19.67
2023-01-22T12:08:28.771Z,20.33
2023-01-22T12:13:42.032Z,21.80
2023-01-22T12:24:02.474Z,22.20
2023-01-22T12:29:15.548Z,23.50
2023-01-22T12:34:25.903Z,22.88
2023-01-22T12:39:36.669Z,23.33
2023-01-22T12:45:06.581Z,24.63
2023-01-22T12:50:22.107Z,24.20
2023-01-22T12:55:30.653Z,23.90
2023-01-22T13:00:37.634Z,21.23
2023-01-22T13:05:42.805Z,22.33
2023-01-22T13:11:00.098Z,23.98
2023-01-22T13:16:17.863Z,23.55
2023-01-22T13:21:29.964Z,23.25
2023-01-22T13:26:38.065Z,24.05
2023-01-22T13:31:41.169Z,25.52
2023-01-22T13:36:49.212Z,26.42
2023-01-22T13:41:55.217Z,26.10
2023-01-22T13:46:59.892Z,26.63
2023-01-22T13:52:07.134Z,28.95
2023-01-22T13:57:28.488Z,28.52
2023-01-22T14:02:51.924Z,26.92
2023-01-22T14:08:13.889Z,28.23
2023-01-22T14:13:18.400Z,26.63
2023-01-22T14:23:24.828Z,27.65
2023-01-22T14:28:30.190Z,28.15
2023-01-22T14:33:34.107Z,28.75
2023-01-22T14:38:38.463Z,28.70
2023-01-22T14:48:44.501Z,27.05
2023-01-22T14:58:52.118Z,27.45
2023-01-22T15:03:55.217Z,29.77
2023-01-22T15:14:05.320Z,32.35
2023-01-22T15:19:08.614Z,33.92
2023-01-22T15:24:12.106Z,35.55
2023-01-22T15:29:15.583Z,34.53
2023-01-22T15:34:18.743Z,34.10
2023-01-22T15:44:26.434Z,34.47
2023-01-22T15:59:35.804Z,33.13
2023-01-22T16:04:52.607Z,36.25
2023-01-22T16:10:14.660Z,35.60
2023-01-22T16:15:19.103Z,36.97
2023-01-22T16:25:25.490Z,39.38
2023-01-22T16:30:29.050Z,36.38
2023-01-22T16:40:35.037Z,32.10
2023-01-22T16:45:52.426Z,36.20
2023-01-22T16:51:25.158Z,35.47
2023-01-22T16:56:29.181Z,37.55
2023-01-22T17:01:32.406Z,37.60
2023-01-22T17:12:06.301Z,35.42
2023-01-22T17:17:09.930Z,39.60
2023-01-22T17:22:13.297Z,40.88
2023-01-22T17:27:17.812Z,40.58
2023-01-22T17:32:20.983Z,39.85
2023-01-22T17:37:25.479Z,42.58
2023-01-22T17:42:29.459Z,39.53
2023-01-22T17:47:33.513Z,37.83
2023-01-22T17:52:37.894Z,36.20
2023-01-22T17:57:41.543Z,32.63
2023-01-22T18:02:57.441Z,28.77
2023-01-22T18:08:20.500Z,22.88
2023-01-22T18:13:24.475Z,15.77
2023-01-22T18:18:27.581Z,13.48
2023-01-22T18:23:31.972Z,12.60
2023-01-22T18:33:39.115Z,5.88
2023-01-22T18:38:42.265Z,6.88
2023-01-22T18:48:54.450Z,5.35
2023-01-22T18:53:58.592Z,5.32
2023-01-22T18:59:02.593Z,4.93
2023-01-22T19:04:19.878Z,4.97
2023-01-22T19:09:41.218Z,4.75
2023-01-22T19:14:45.967Z,4.90
2023-01-22T19:19:49.221Z,5.22
2023-01-22T19:24:52.669Z,4.13
2023-01-22T19:29:56.331Z,6.93
2023-01-22T19:34:59.927Z,3.85
2023-01-22T19:40:03.863Z,3.72
2023-01-22T19:45:07.549Z,4.03
2023-01-22T19:50:11.489Z,4.15
2023-01-22T19:55:15.225Z,3.80
2023-01-22T20:00:31.386Z,3.80
2023-01-22T20:05:51.851Z,3.88
2023-01-22T20:11:00.532Z,3.88
2023-01-22T20:16:06.210Z,3.78
2023-01-22T20:21:10.379Z,4.13
2023-01-22T20:26:14.481Z,3.45
2023-01-22T20:31:21.728Z,3.75
2023-01-22T20:36:36.952Z,4.03
2023-01-22T20:41:58.904Z,4.10
2023-01-22T20:47:02.825Z,4.68
2023-01-22T20:52:06.220Z,4.47
2023-01-22T20:57:09.636Z,4.30
2023-01-22T21:02:13.080Z,4.57
2023-01-22T21:07:16.484Z,4.38
2023-01-22T21:12:19.746Z,4.20
2023-01-22T21:22:25.987Z,3.70
2023-01-22T21:27:29.706Z,4.00
2023-01-22T21:32:33.750Z,4.15
2023-01-22T21:37:37.050Z,4.35
2023-01-22T21:47:43.557Z,4.03
2023-01-22T21:52:49.041Z,4.25
2023-01-22T21:57:52.326Z,4.50
2023-01-22T22:07:58.761Z,4.47
2023-01-22T22:13:02.162Z,4.47
2023-01-22T22:18:06.637Z,4.68
2023-01-22T22:23:10.163Z,4.95
2023-01-22T22:33:16.336Z,4.50
2023-01-22T22:38:20.648Z,4.82
2023-01-22T22:48:28.954Z,5.28
2023-01-22T22:58:35.434Z,4.53
2023-01-22T23:03:40.025Z,5.15
2023-01-22T23:08:45.779Z,5.10
2023-01-22T23:14:03.141Z,5.10
2023-01-22T23:19:24.237Z,5.07
2023-01-22T23:24:28.334Z,4.90
2023-01-22T23:29:31.945Z,4.97
2023-01-22T23:39:38.813Z,5.38
2023-01-22T23:44:42.300Z,5.45
2023-01-22T23:49:45.667Z,5.95
2023-01-22T23:54:49.075Z,6.38
2023-01-22T23:59:52.243Z,5.38
